Time;durP1;ratioP1;P1;durP2;ratioP2;P2;SDS_P1;SDS_P2;PMS_P1;PMS_P2;Temp;Humidity;BMP_temperature;BMP_pressure;BME280_temperature;BME280_humidity;BME280_pressure;Samples;Min_cycle;Max_cycle;Signal;HPM_P1;HPM_P2
2023/02/24 06:52:30;;;;;;;;;47.50;37.50;;;;;8.00;100.00;100984.03;4955524;23;49842;-70
2023/02/24 06:54:56;;;;;;;;;45.50;40.25;;;;;8.28;100.00;101015.53;4933562;28;49541;-70
2023/02/24 06:57:22;;;;;;;;;48.75;41.75;;;;;8.32;100.00;101022.66;4933153;28;49819;-67
2023/02/24 06:59:47;;;;;;;;;52.00;40.00;;;;;8.48;100.00;101058.09;4930083;28;50092;-67
2023/02/24 07:02:13;;;;;;;;;45.50;37.75;;;;;8.40;100.00;101054.34;4930989;28;50794;-66
2023/02/24 07:04:46;;;;;;;;;48.25;40.50;;;;;8.33;100.00;101037.53;4929714;28;50257;-71
2023/02/24 07:07:13;;;;;;;;;52.00;39.25;;;;;8.28;100.00;101040.81;4931274;28;50091;-71
2023/02/24 07:09:40;;;;;;;;;53.75;40.00;;;;;8.42;100.00;101062.25;4935723;28;49932;-66
2023/02/24 07:12:06;;;;;;;;;42.50;39.50;;;;;8.35;100.00;101070.72;4928969;28;49838;-64
2023/02/24 07:14:32;;;;;;;;;50.25;40.50;;;;;8.16;100.00;101032.53;4931114;28;50446;-67
2023/02/24 07:16:59;;;;;;;;;42.75;39.50;;;;;8.32;100.00;101059.28;4931021;28;49902;-70
2023/02/24 07:19:28;;;;;;;;;56.75;40.50;;;;;8.33;100.00;101062.78;4940099;28;49814;-68
2023/02/24 07:22:02;;;;;;;;;50.50;42.50;;;;;8.26;100.00;101030.28;4948750;28;49985;-69
2023/02/24 07:24:36;;;;;;;;;58.00;43.75;;;;;8.50;100.00;101064.28;4915609;28;49775;-64
2023/02/24 07:27:21;;;;;;;;;55.00;44.25;;;;;8.45;100.00;101051.88;4933040;28;49720;-64
2023/02/24 07:29:48;;;;;;;;;48.00;40.00;;;;;8.43;100.00;101045.72;4930835;28;49767;-64
2023/02/24 07:32:14;;;;;;;;;47.25;39.50;;;;;8.31;100.00;101038.31;4915062;28;52554;-65
2023/02/24 07:34:40;;;;;;;;;55.75;41.25;;;;;8.24;100.00;101036.31;4925241;28;49736;-63
2023/02/24 07:37:08;;;;;;;;;46.00;39.75;;;;;8.29;100.00;101019.03;4930957;28;50032;-64
2023/02/24 07:39:38;;;;;;;;;47.50;40.00;;;;;8.50;100.00;101069.53;4932950;28;49775;-64
2023/02/24 07:42:04;;;;;;;;;46.50;39.00;;;;;8.52;100.00;101061.72;4932605;28;49644;-64
2023/02/24 07:44:30;;;;;;;;;45.00;41.50;;;;;8.22;100.00;101004.88;4951359;28;49714;-64
2023/02/24 07:46:58;;;;;;;;;40.25;38.00;;;;;8.47;100.00;101051.09;4937902;28;50099;-64
2023/02/24 07:49:24;;;;;;;;;45.00;37.50;;;;;8.56;100.00;101069.72;4951066;28;49905;-64
2023/02/24 07:51:51;;;;;;;;;49.25;37.75;;;;;7.75;100.00;100964.03;4950740;28;49988;-64
2023/02/24 07:54:20;;;;;;;;;35.75;31.50;;;;;8.46;100.00;101040.56;4950796;28;49721;-64
2023/02/24 07:56:47;;;;;;;;;47.00;36.50;;;;;8.28;100.00;101012.91;4933543;28;49923;-65
2023/02/24 07:59:14;;;;;;;;;47.00;37.25;;;;;8.50;100.00;101048.59;4933759;28;49881;-65
2023/02/24 08:01:48;;;;;;;;;46.25;37.50;;;;;8.55;100.00;101044.38;4933456;28;51622;-65
2023/02/24 08:04:18;;;;;;;;;43.25;35.00;;;;;8.68;100.00;101076.19;4950831;28;49900;-65
2023/02/24 08:06:44;;;;;;;;;39.75;34.75;;;;;8.00;100.00;100952.66;4926534;28;49653;-64
2023/02/24 08:09:16;;;;;;;;;37.25;34.50;;;;;8.58;100.00;101062.81;4945237;28;49783;-64
2023/02/24 08:11:53;;;;;;;;;44.25;34.50;;;;;8.59;100.00;101067.22;4932705;28;50689;-64
2023/02/24 08:14:22;;;;;;;;;50.00;40.75;;;;;8.64;100.00;101074.31;4950942;28;49950;-66
2023/02/24 08:16:58;;;;;;;;;41.75;34.25;;;;;8.63;100.00;101064.69;4951049;28;49867;-64
2023/02/24 08:19:31;;;;;;;;;42.75;32.75;;;;;8.47;100.00;101050.19;4950501;28;49902;-64
2023/02/24 08:22:23;;;;;;;;;47.25;38.25;;;;;8.20;100.00;100992.56;4950593;28;49808;-64
2023/02/24 08:24:59;;;;;;;;;42.25;29.25;;;;;8.21;100.00;101002.22;4950835;28;49706;-64
2023/02/24 08:27:29;;;;;;;;;38.25;35.00;;;;;8.40;100.00;101027.31;4950667;28;49815;-63
2023/02/24 08:30:01;;;;;;;;;35.00;31.00;;;;;8.51;100.00;101026.81;4943266;28;49735;-64
2023/02/24 08:32:42;;;;;;;;;39.50;34.00;;;;;8.69;100.00;101030.88;4931224;28;50525;-64
2023/02/24 08:35:15;;;;;;;;;37.50;33.75;;;;;8.84;100.00;101023.50;4931670;28;49711;-64
2023/02/24 08:37:49;;;;;;;;;31.50;29.50;;;;;8.82;100.00;101006.88;4932221;28;49604;-68
2023/02/24 08:43:31;;;;;;;;;44.00;35.00;;;;;8.89;100.00;101004.50;4916994;28;49984;-64
2023/02/24 08:45:59;;;;;;;;;34.25;31.75;;;;;9.04;100.00;101018.91;4950374;28;49710;-65
2023/02/24 08:48:38;;;;;;;;;42.50;36.75;;;;;8.95;100.00;100990.69;4950226;28;49986;-67
2023/02/24 08:51:03;;;;;;;;;30.50;29.75;;;;;9.02;100.00;101003.16;4929860;28;50273;-65
2023/02/24 08:53:30;;;;;;;;;42.00;30.00;;;;;8.95;100.00;101003.78;4914171;28;51327;-67
2023/02/24 08:56:08;;;;;;;;;40.00;34.50;;;;;8.89;100.00;100993.16;4931741;28;49834;-65
2023/02/24 08:58:39;;;;;;;;;42.25;35.00;;;;;8.81;100.00;101016.47;4914549;28;49982;-64
2023/02/24 09:01:17;;;;;;;;;39.50;37.00;;;;;8.69;100.00;100984.66;4914874;28;49847;-63
2023/02/24 09:03:46;;;;;;;;;47.75;34.75;;;;;8.59;100.00;100962.56;4946692;28;49639;-65
2023/02/24 09:06:15;;;;;;;;;41.50;34.50;;;;;8.56;100.00;100965.03;4932509;28;49269;-63
2023/02/24 09:08:42;;;;;;;;;44.75;34.25;;;;;8.79;100.00;100980.63;4953385;28;49603;-64
2023/02/24 09:11:12;;;;;;;;;39.25;31.25;;;;;8.83;100.00;100990.31;4963473;28;49518;-65
2023/02/24 09:13:56;;;;;;;;;39.25;34.75;;;;;9.13;100.00;101000.84;4948623;28;49585;-64
2023/02/24 09:16:23;;;;;;;;;35.75;29.00;;;;;9.13;100.00;101001.75;4949524;28;49573;-65
2023/02/24 09:24:31;;;;;;;;;48.50;40.00;;;;;9.36;100.00;100983.19;4934150;28;50873;-69
2023/02/24 09:26:59;;;;;;;;;47.00;37.25;;;;;9.64;100.00;101025.06;4947384;28;49558;-71
2023/02/24 09:29:48;;;;;;;;;40.25;37.00;;;;;9.34;100.00;100963.91;4920135;28;51041;-69
2023/02/24 09:32:14;;;;;;;;;39.25;37.00;;;;;9.56;100.00;100986.41;4930800;28;50163;-67
2023/02/24 09:34:43;;;;;;;;;29.25;27.00;;;;;9.78;100.00;101021.97;4933786;28;49743;-68
2023/02/24 09:37:23;;;;;;;;;38.00;34.50;;;;;9.62;100.00;101023.25;4933480;28;49872;-68
2023/02/24 09:42:31;;;;;;;;;47.50;37.75;;;;;9.53;100.00;100960.97;4940461;28;49695;-65
2023/02/24 09:45:02;;;;;;;;;36.25;32.25;;;;;9.57;100.00;100978.59;4937532;28;50698;-64
2023/02/24 09:47:55;;;;;;;;;34.25;29.25;;;;;9.81;100.00;101017.69;4930862;28;49739;-70
2023/02/24 09:50:22;;;;;;;;;36.25;34.25;;;;;9.91;100.00;101017.09;4934976;28;49881;-72
2023/02/24 09:52:52;;;;;;;;;36.75;29.75;;;;;9.60;100.00;100952.44;4945358;28;49774;-74
2023/02/24 09:55:44;;;;;;;;;34.50;30.25;;;;;9.89;100.00;101010.03;4925806;28;52714;-71
2023/02/24 09:58:28;;;;;;;;;31.75;28.25;;;;;9.92;100.00;101007.50;4947268;28;49610;-72
2023/02/24 10:01:20;;;;;;;;;34.75;32.75;;;;;9.84;100.00;101011.63;4915043;28;49753;-71
2023/02/24 10:04:03;;;;;;;;;31.00;26.75;;;;;9.83;100.00;101005.50;4926606;28;50644;-71
2023/02/24 10:06:54;;;;;;;;;28.75;25.75;;;;;9.39;100.00;100952.75;4933566;28;49773;-77
2023/02/24 10:09:25;;;;;;;;;29.75;27.50;;;;;9.49;100.00;100976.59;4933581;28;49770;-71
2023/02/24 10:12:03;;;;;;;;;31.25;28.25;;;;;9.50;100.00;100984.50;4941374;28;49782;-72
2023/02/24 10:14:46;;;;;;;;;27.75;26.25;;;;;9.49;100.00;100984.44;4946988;28;50215;-74
2023/02/24 10:17:22;;;;;;;;;32.25;27.25;;;;;9.07;100.00;100928.25;4947343;28;50972;-72
2023/02/24 10:19:58;;;;;;;;;35.25;26.75;;;;;9.29;100.00;100974.28;4915765;28;49895;-71
2023/02/24 10:22:33;;;;;;;;;28.50;24.50;;;;;9.20;100.00;100967.88;4933804;28;49653;-73
2023/02/24 10:25:25;;;;;;;;;30.50;28.00;;;;;9.22;100.00;100960.94;4934108;28;49776;-73
2023/02/24 10:27:57;;;;;;;;;23.50;22.25;;;;;9.30;100.00;100960.34;4947801;28;49737;-72
2023/02/24 10:30:47;;;;;;;;;38.50;35.00;;;;;9.36;100.00;100949.13;4947705;28;49966;-72
2023/02/24 10:33:24;;;;;;;;;35.75;29.75;;;;;9.38;100.00;100952.69;4929286;28;49974;-72
2023/02/24 10:35:49;;;;;;;;;43.00;37.00;;;;;9.25;100.00;100932.22;4942175;28;49753;-73
2023/02/24 10:38:15;;;;;;;;;24.00;22.25;;;;;9.03;100.00;100899.28;4935280;28;50695;-73
2023/02/24 10:40:55;;;;;;;;;25.50;21.50;;;;;9.27;100.00;100913.09;4943523;28;49576;-71
2023/02/24 10:43:28;;;;;;;;;29.25;24.25;;;;;9.59;100.00;100948.06;4945279;28;49813;-69
2023/02/24 10:46:04;;;;;;;;;19.50;19.25;;;;;9.43;100.00;100914.41;4947843;28;50011;-72
2023/02/24 10:48:37;;;;;;;;;25.00;24.00;;;;;9.06;100.00;100808.59;4933959;28;50980;-72
2023/02/24 10:51:18;;;;;;;;;28.25;28.00;;;;;9.45;100.00;100866.41;4945607;28;49765;-73
2023/02/24 10:53:52;;;;;;;;;43.25;38.50;;;;;9.90;100.00;100910.44;4935895;28;49862;-74
2023/02/24 11:01:57;;;;;;;;;39.50;30.50;;;;;10.27;100.00;100872.03;4947387;28;49786;-72
2023/02/24 11:07:08;;;;;;;;;15.25;15.25;;;;;10.33;100.00;100966.66;4953608;28;49802;-71
2023/02/24 11:09:42;;;;;;;;;15.75;15.75;;;;;10.00;100.00;100906.31;4959073;28;50155;-73
2023/02/24 11:18:18;;;;;;;;;25.50;25.50;;;;;10.04;100.00;100909.06;4946269;28;49917;-76
2023/02/24 11:20:48;;;;;;;;;26.50;20.75;;;;;9.58;100.00;100819.59;4945514;28;51009;-74
2023/02/24 11:23:22;;;;;;;;;22.00;19.75;;;;;9.71;100.00;100851.38;4943066;28;49576;-77
2023/02/24 11:25:52;;;;;;;;;19.75;17.50;;;;;9.97;100.00;100874.78;4964305;28;49473;-79
2023/02/24 11:28:35;;;;;;;;;19.00;18.25;;;;;10.09;100.00;100897.78;4950938;28;49594;-74
2023/02/24 11:31:30;;;;;;;;;20.25;17.50;;;;;10.00;100.00;100896.72;4932970;28;49905;-72
2023/02/24 11:34:08;;;;;;;;;19.25;18.00;;;;;8.89;100.00;100684.22;4909239;28;49971;-78
2023/02/24 11:36:55;;;;;;;;;14.25;11.00;;;;;10.04;100.00;100884.56;4935200;28;49972;-77
2023/02/24 11:39:48;;;;;;;;;19.75;18.25;;;;;9.72;100.00;100824.31;4946154;28;49696;-77
2023/02/24 11:42:20;;;;;;;;;17.25;15.50;;;;;8.97;100.00;100719.31;4941512;28;49817;-75
2023/02/24 11:44:51;;;;;;;;;20.00;16.75;;;;;10.02;100.00;100860.91;4931718;28;49699;-72
2023/02/24 11:47:22;;;;;;;;;12.75;12.00;;;;;10.01;100.00;100850.38;4942127;28;49376;-72
2023/02/24 11:49:54;;;;;;;;;20.50;15.50;;;;;9.57;100.00;100762.78;4938726;28;49872;-74
2023/02/24 11:52:27;;;;;;;;;18.25;13.00;;;;;10.13;100.00;100845.41;4944695;28;49761;-77
2023/02/24 11:54:56;;;;;;;;;13.75;13.25;;;;;8.60;100.00;100608.44;4960604;28;49748;-77
2023/02/24 11:57:50;;;;;;;;;14.50;11.25;;;;;9.52;100.00;100704.13;4947131;28;49765;-77
2023/02/24 12:00:22;;;;;;;;;12.75;12.75;;;;;10.41;100.00;100818.13;4942960;28;49704;-79
2023/02/24 12:03:04;;;;;;;;;15.25;13.50;;;;;9.56;100.00;100664.06;4931157;28;52096;-77
2023/02/24 12:05:37;;;;;;;;;13.50;12.00;;;;;9.30;100.00;100650.31;4947847;28;49721;-74
2023/02/24 12:08:15;;;;;;;;;10.00;10.00;;;;;9.77;100.00;100672.41;4940763;28;49806;-76
2023/02/24 12:10:49;;;;;;;;;18.75;12.50;;;;;9.20;100.00;100575.88;4943239;28;49981;-77
2023/02/24 12:13:55;;;;;;;;;11.25;11.25;;;;;10.65;100.00;100799.41;4950210;28;50549;-76
2023/02/24 12:16:28;;;;;;;;;10.75;10.75;;;;;10.36;100.00;100772.53;4944319;28;50150;-74
2023/02/24 12:18:59;;;;;;;;;15.00;12.25;;;;;10.71;100.00;100811.75;4933760;28;49911;-73
2023/02/24 12:21:32;;;;;;;;;13.00;10.25;;;;;10.70;100.00;100797.75;4931399;28;49819;-77
2023/02/24 12:24:00;;;;;;;;;8.50;6.75;;;;;9.48;100.00;100571.28;4931297;28;50834;-74
2023/02/24 12:26:58;;;;;;;;;11.50;11.50;;;;;10.42;100.00;100729.78;4931765;28;49853;-79
2023/02/24 12:29:33;;;;;;;;;13.50;9.00;;;;;10.66;100.00;100760.91;4927273;28;50251;-78
2023/02/24 12:32:25;;;;;;;;;10.50;10.50;;;;;10.81;100.00;100766.50;4940366;28;50183;-76
2023/02/24 12:34:59;;;;;;;;;8.25;8.25;;;;;10.85;100.00;100760.44;4947141;28;51117;-76
2023/02/24 12:37:49;;;;;;;;;10.25;10.00;;;;;8.93;100.00;100468.75;4932794;28;49864;-75
2023/02/24 12:40:37;;;;;;;;;10.50;8.50;;;;;9.55;100.00;100586.25;4945623;28;49832;-76
2023/02/24 12:43:27;;;;;;;;;14.25;13.50;;;;;10.84;100.00;100759.53;4944357;28;49839;-78
2023/02/24 12:46:02;;;;;;;;;12.50;12.50;;;;;10.79;100.00;100763.81;4937263;28;50896;-76
2023/02/24 12:48:43;;;;;;;;;15.00;14.00;;;;;10.85;100.00;100760.44;4931483;28;49825;-78
2023/02/24 12:51:40;;;;;;;;;11.00;10.25;;;;;9.89;100.00;100596.63;4943813;28;49861;-80
2023/02/24 12:54:10;;;;;;;;;11.00;10.75;;;;;9.85;100.00;100580.81;4929704;28;49892;-80
2023/02/24 12:56:44;;;;;;;;;16.25;12.75;;;;;10.89;100.00;100747.38;4941332;28;49623;-71
2023/02/24 12:59:16;;;;;;;;;13.75;12.50;;;;;10.75;100.00;100740.97;4951399;28;49746;-73
2023/02/24 13:02:04;;;;;;;;;11.50;9.50;;;;;10.54;100.00;100698.56;4923524;28;50234;-73
2023/02/24 13:04:52;;;;;;;;;17.75;13.00;;;;;10.83;100.00;100735.88;4925737;28;49990;-85
2023/02/24 13:07:34;;;;;;;;;12.25;10.50;;;;;10.88;100.00;100727.22;4934777;28;50809;-71
2023/02/24 13:10:02;;;;;;;;;14.75;12.00;;;;;10.98;100.00;100720.38;4941918;28;49625;-68
2023/02/24 13:12:37;;;;;;;;;18.75;13.25;;;;;11.02;100.00;100697.72;4949865;28;49675;-70
2023/02/24 13:15:14;;;;;;;;;10.25;10.25;;;;;10.95;100.00;100674.81;4949964;28;49763;-68
2023/02/24 13:17:46;;;;;;;;;12.00;9.50;;;;;11.22;100.00;100704.19;4953361;28;50603;-68
2023/02/24 13:20:13;;;;;;;;;19.00;15.75;;;;;11.12;100.00;100670.75;4945702;28;49932;-69
2023/02/24 13:22:41;;;;;;;;;9.25;9.25;;;;;10.95;100.00;100643.28;4937489;28;49928;-69
2023/02/24 13:25:06;;;;;;;;;14.00;13.00;;;;;11.28;100.00;100683.25;4951767;28;49902;-68
2023/02/24 13:27:39;;;;;;;;;14.00;11.00;;;;;11.29;100.00;100676.25;4948639;28;49865;-69
2023/02/24 13:30:11;;;;;;;;;7.25;7.25;;;;;11.32;100.00;100682.47;4944503;28;49922;-69
2023/02/24 13:32:41;;;;;;;;;13.00;10.50;;;;;9.94;100.00;100463.88;4934778;28;50186;-69
2023/02/24 13:35:15;;;;;;;;;10.50;8.00;;;;;11.35;100.00;100674.63;4934752;28;49895;-69
2023/02/24 13:37:43;;;;;;;;;8.00;8.00;;;;;11.17;100.00;100634.91;4950802;28;50913;-69
2023/02/24 13:40:17;;;;;;;;;11.00;8.75;;;;;11.50;100.00;100671.38;4945004;28;49772;-69
2023/02/24 13:43:04;;;;;;;;;13.00;10.00;;;;;11.45;98.90;100671.28;4948298;28;49849;-69
2023/02/24 13:45:40;;;;;;;;;12.00;8.00;;;;;10.82;97.38;100571.31;4953172;28;49997;-69
2023/02/24 13:48:27;;;;;;;;;11.50;8.75;;;;;11.43;98.92;100670.38;4929953;28;50696;-69
2023/02/24 13:51:39;;;;;;;;;9.25;8.00;;;;;11.31;96.37;100670.19;4933851;28;50020;-69
2023/02/24 13:54:42;;;;;;;;;11.50;8.50;;;;;11.32;96.89;100656.19;4917510;28;50007;-69
2023/02/24 13:57:46;;;;;;;;;9.50;8.25;;;;;11.50;97.00;100674.00;4932190;28;49880;-68
2023/02/24 14:00:33;;;;;;;;;7.50;7.25;;;;;11.51;96.69;100651.22;4952973;28;49900;-69
2023/02/24 14:02:59;;;;;;;;;11.00;9.25;;;;;11.38;94.92;100615.97;4949365;28;49825;-69
2023/02/24 14:05:34;;;;;;;;;10.25;9.25;;;;;11.72;94.52;100655.03;4947719;28;49893;-69
2023/02/24 14:08:02;;;;;;;;;11.50;10.00;;;;;11.53;91.56;100605.69;4950081;28;49794;-69
2023/02/24 14:10:33;;;;;;;;;9.50;9.25;;;;;11.85;90.56;100652.63;4949577;28;51067;-69
2023/02/24 14:13:20;;;;;;;;;12.75;10.00;;;;;11.93;90.98;100666.75;4952594;28;49887;-69
2023/02/24 14:15:47;;;;;;;;;8.00;8.00;;;;;11.47;90.89;100600.31;4952516;28;49873;-70
2023/02/24 14:18:22;;;;;;;;;12.50;12.50;;;;;11.67;92.15;100645.31;4952533;28;49698;-69
2023/02/24 14:20:47;;;;;;;;;10.50;10.50;;;;;11.56;91.97;100632.00;4934092;28;51243;-69
2023/02/24 14:23:28;;;;;;;;;9.25;8.25;;;;;11.36;92.56;100617.69;4952742;28;49719;-69
2023/02/24 14:26:01;;;;;;;;;14.00;10.25;;;;;11.56;93.74;100660.03;4931019;28;50130;-73
2023/02/24 14:28:38;;;;;;;;;9.25;8.25;;;;;11.34;92.33;100628.19;4951398;28;50198;-78
2023/02/24 14:31:13;;;;;;;;;10.00;8.00;;;;;11.39;92.62;100638.78;4952080;28;49871;-80
2023/02/24 14:33:42;;;;;;;;;8.75;8.75;;;;;11.27;91.52;100634.19;4949629;28;49640;-77
2023/02/24 14:36:19;;;;;;;;;10.75;10.75;;;;;10.46;91.20;100532.19;4951033;28;49955;-76
2023/02/24 14:38:44;;;;;;;;;9.50;9.50;;;;;10.11;91.22;100497.38;4927645;28;49822;-77
2023/02/24 14:41:24;;;;;;;;;9.25;8.25;;;;;10.60;92.40;100534.16;4938782;28;51056;-80
2023/02/24 14:43:51;;;;;;;;;13.25;10.00;;;;;10.00;89.69;100439.50;4942278;28;49952;-78
2023/02/24 14:46:16;;;;;;;;;12.75;9.25;;;;;10.50;89.08;100527.00;4935344;28;49744;-78
2023/02/24 14:48:43;;;;;;;;;5.25;5.25;;;;;11.39;89.36;100649.28;4946686;28;49971;-75
2023/02/24 14:51:34;;;;;;;;;11.50;9.75;;;;;11.23;87.42;100621.88;4932807;28;51128;-70
2023/02/24 14:54:05;;;;;;;;;10.00;8.50;;;;;11.09;85.41;100610.25;4942751;28;49866;-74
2023/02/24 14:56:33;;;;;;;;;9.00;7.50;;;;;11.29;86.99;100639.47;4933493;28;49815;-71
2023/02/24 14:59:05;;;;;;;;;12.00;8.50;;;;;10.90;83.94;100561.78;4944006;28;50087;-77
2023/02/24 15:01:38;;;;;;;;;7.75;7.00;;;;;11.18;82.30;100639.28;4934078;28;51690;-75
2023/02/24 15:04:38;;;;;;;;;9.75;8.25;;;;;11.13;82.62;100630.47;4933633;28;50137;-76
2023/02/24 15:07:16;;;;;;;;;9.25;9.00;;;;;11.12;82.48;100626.97;4951626;28;49605;-78
2023/02/24 15:09:45;;;;;;;;;8.25;7.75;;;;;10.66;81.53;100543.91;4951753;28;50743;-77
2023/02/24 15:12:32;;;;;;;;;10.75;10.00;;;;;11.07;79.94;100611.97;4951514;28;50653;-71
2023/02/24 15:15:03;;;;;;;;;6.50;6.50;;;;;10.65;79.48;100565.75;4938941;28;49893;-72
2023/02/24 15:17:29;;;;;;;;;8.50;7.50;;;;;10.60;79.18;100560.41;4926779;28;49891;-72
2023/02/24 15:19:54;;;;;;;;;5.50;5.50;;;;;10.77;78.55;100554.56;4926455;28;49677;-72
2023/02/24 15:22:23;;;;;;;;;6.25;6.25;;;;;11.01;78.43;100599.63;4915040;28;51025;-72
2023/02/24 15:24:51;;;;;;;;;7.75;7.00;;;;;11.00;78.10;100590.00;4948013;28;49750;-71
2023/02/24 15:27:16;;;;;;;;;9.25;8.50;;;;;11.01;76.71;100596.13;4951361;28;49648;-71
2023/02/24 15:29:43;;;;;;;;;8.00;6.00;;;;;11.00;74.87;100624.16;4951501;28;49803;-71
2023/02/24 15:32:19;;;;;;;;;8.00;6.00;;;;;10.94;73.27;100599.50;4915847;28;51352;-71
2023/02/24 15:34:46;;;;;;;;;7.75;5.00;;;;;10.69;71.96;100578.06;4944376;28;49804;-71
2023/02/24 15:37:15;;;;;;;;;7.50;6.50;;;;;10.79;71.21;100611.50;4926634;28;49741;-71
2023/02/24 15:39:43;;;;;;;;;12.00;7.75;;;;;10.77;70.55;100604.47;4932896;28;49827;-72
2023/02/24 15:42:32;;;;;;;;;8.75;7.00;;;;;10.73;69.95;100593.03;4926389;28;49970;-72
2023/02/24 15:45:04;;;;;;;;;8.75;4.25;;;;;10.73;69.05;100600.03;4919432;28;49814;-72
2023/02/24 15:47:41;;;;;;;;;4.00;4.00;;;;;10.54;68.27;100581.31;4942219;28;50354;-71
2023/02/24 15:50:08;;;;;;;;;7.75;6.75;;;;;9.99;69.67;100469.19;4950740;28;49867;-72
2023/02/24 15:52:35;;;;;;;;;9.00;7.00;;;;;10.48;69.33;100554.97;4947115;28;51826;-72
2023/02/24 15:55:01;;;;;;;;;6.50;4.50;;;;;10.32;69.12;100532.78;4950600;28;49814;-72
2023/02/24 15:57:31;;;;;;;;;7.75;7.50;;;;;10.70;69.09;100595.59;4950748;28;49761;-68
2023/02/24 15:59:57;;;;;;;;;4.25;4.25;;;;;10.29;67.75;100524.00;4948997;28;50442;-68
2023/02/24 16:02:23;;;;;;;;;6.75;3.25;;;;;10.13;68.74;100480.81;4948483;28;49770;-69
2023/02/24 16:04:50;;;;;;;;;3.75;3.75;;;;;10.69;68.86;100570.19;4948275;28;49799;-71
2023/02/24 16:07:32;;;;;;;;;8.00;8.00;;;;;10.49;68.90;100551.47;4950888;28;49707;-69
2023/02/24 16:09:59;;;;;;;;;7.75;6.75;;;;;10.60;70.24;100577.91;4939357;28;49856;-70
2023/02/24 16:12:41;;;;;;;;;8.50;6.00;;;;;10.63;71.57;100566.59;4950631;28;51051;-71
2023/02/24 16:15:15;;;;;;;;;10.00;7.50;;;;;10.52;71.16;100538.44;4927095;28;49969;-70
2023/02/24 16:17:41;;;;;;;;;8.00;6.25;;;;;10.57;71.74;100556.88;4947282;28;49745;-72
2023/02/24 16:20:26;;;;;;;;;4.25;4.25;;;;;10.72;72.03;100583.41;4941068;28;49760;-70
2023/02/24 16:22:55;;;;;;;;;9.00;8.00;;;;;10.41;72.64;100528.56;4946219;28;50582;-70
2023/02/24 16:25:22;;;;;;;;;8.00;7.00;;;;;10.47;72.01;100549.69;4923993;28;49800;-71
2023/02/24 16:27:48;;;;;;;;;4.75;4.00;;;;;10.40;72.17;100545.16;4930603;28;49905;-71
2023/02/24 16:30:19;;;;;;;;;6.00;5.75;;;;;10.57;71.86;100570.00;4935208;28;49830;-69
2023/02/24 16:32:45;;;;;;;;;7.00;6.25;;;;;10.66;72.55;100583.28;4945597;28;50970;-70
2023/02/24 16:35:12;;;;;;;;;9.50;7.50;;;;;10.64;71.49;100589.38;4950460;28;49746;-69
2023/02/24 16:37:38;;;;;;;;;14.25;13.25;;;;;10.44;72.04;100550.53;4933277;28;50052;-69
2023/02/24 16:40:15;;;;;;;;;7.00;5.75;;;;;10.42;69.79;100569.69;4943748;28;49900;-70
2023/02/24 16:42:40;;;;;;;;;17.00;10.75;;;;;10.29;67.79;100553.72;4950500;28;50002;-70
2023/02/24 16:45:06;;;;;;;;;10.75;7.75;;;;;10.20;67.33;100558.78;4950607;28;49790;-76
2023/02/24 16:47:33;;;;;;;;;7.50;7.50;;;;;9.60;66.99;100461.47;4951788;28;49628;-71
2023/02/24 16:49:59;;;;;;;;;10.25;7.75;;;;;10.08;68.20;100537.56;4953232;28;49946;-71
2023/02/24 16:52:24;;;;;;;;;8.00;8.00;;;;;10.36;65.56;100591.47;4952960;28;51105;-70
2023/02/24 16:54:50;;;;;;;;;8.00;7.00;;;;;10.23;65.09;100577.25;4937634;28;50047;-68
2023/02/24 16:57:15;;;;;;;;;8.25;7.00;;;;;10.35;64.84;100597.59;4934563;28;49730;-70
2023/02/24 16:59:41;;;;;;;;;7.00;4.00;;;;;10.07;62.80;100556.78;4935064;28;49677;-70
2023/02/24 17:02:16;;;;;;;;;6.00;6.00;;;;;10.23;61.70;100613.06;4943157;28;50004;-78
2023/02/24 17:04:41;;;;;;;;;8.50;6.75;;;;;10.02;60.73;100585.53;4953909;28;49986;-70
2023/02/24 17:07:09;;;;;;;;;6.00;5.25;;;;;9.97;60.21;100588.94;4948844;28;49703;-76
2023/02/24 17:09:34;;;;;;;;;5.75;5.75;;;;;9.89;61.50;100580.91;4934385;28;50004;-70
2023/02/24 17:12:00;;;;;;;;;7.00;3.25;;;;;9.72;61.69;100567.44;4934850;28;49801;-71
2023/02/24 17:14:25;;;;;;;;;6.00;4.00;;;;;9.88;61.96;100600.09;4934979;28;49931;-71
2023/02/24 17:16:50;;;;;;;;;6.00;4.00;;;;;9.73;62.58;100587.53;4935196;28;49731;-71
2023/02/24 17:19:16;;;;;;;;;5.50;4.00;;;;;9.57;63.43;100568.84;4934964;28;49806;-72
2023/02/24 17:21:43;;;;;;;;;7.00;7.00;;;;;9.92;64.30;100616.78;4934659;28;51800;-75
2023/02/24 17:24:18;;;;;;;;;6.00;6.00;;;;;9.79;64.22;100615.63;4934887;28;50036;-71
2023/02/24 17:26:44;;;;;;;;;11.75;9.75;;;;;9.74;65.29;100612.91;4934869;28;49756;-72
2023/02/24 17:29:11;;;;;;;;;7.25;7.25;;;;;9.40;66.10;100571.09;4935072;28;49998;-72
2023/02/24 17:31:37;;;;;;;;;7.00;6.25;;;;;9.75;68.22;100632.16;4934558;28;50053;-72
2023/02/24 17:34:02;;;;;;;;;7.75;7.75;;;;;9.71;69.41;100627.69;4934543;28;49961;-71
2023/02/24 17:36:28;;;;;;;;;6.50;5.00;;;;;9.51;70.45;100601.03;4935172;28;49874;-73
2023/02/24 17:38:55;;;;;;;;;9.00;8.25;;;;;9.58;71.78;100625.66;4929368;28;50180;-74
2023/02/24 17:41:21;;;;;;;;;6.50;6.50;;;;;9.66;72.47;100650.31;4934376;28;50708;-70
2023/02/24 17:43:50;;;;;;;;;9.00;8.75;;;;;9.55;73.61;100626.44;4927546;28;49892;-70
2023/02/24 17:46:15;;;;;;;;;10.50;8.00;;;;;9.07;74.97;100547.63;4934311;28;49774;-71
2023/02/24 17:48:40;;;;;;;;;12.00;8.50;;;;;9.05;75.67;100552.81;4934788;28;49570;-70
2023/02/24 17:51:05;;;;;;;;;9.25;8.25;;;;;9.57;77.82;100658.84;4933563;28;57965;-71
2023/02/24 17:53:31;;;;;;;;;7.75;7.00;;;;;9.00;78.53;100550.97;4934561;28;49715;-72
2023/02/24 17:56:01;;;;;;;;;9.50;9.50;;;;;9.49;79.37;100652.53;4934629;28;49764;-73
2023/02/24 17:58:26;;;;;;;;;8.25;8.25;;;;;9.45;81.11;100648.94;4939901;28;49907;-69
2023/02/24 18:00:51;;;;;;;;;8.25;8.25;;;;;9.04;82.49;100579.84;4952773;28;49960;-69
2023/02/24 18:03:17;;;;;;;;;10.25;9.00;;;;;9.06;82.98;100586.00;4952534;28;49825;-73
2023/02/24 18:05:42;;;;;;;;;9.00;4.00;;;;;9.13;84.15;100605.38;4935077;28;50009;-69
2023/02/24 18:08:08;;;;;;;;;8.25;7.25;;;;;9.23;84.74;100623.09;4952879;28;49694;-69
2023/02/24 18:10:33;;;;;;;;;12.00;11.75;;;;;9.26;85.01;100622.28;4951100;28;52340;-71
2023/02/24 18:12:58;;;;;;;;;11.75;11.00;;;;;9.53;86.35;100685.81;4952620;28;49768;-69
2023/02/24 18:15:24;;;;;;;;;22.25;19.50;;;;;9.33;86.96;100648.66;4952563;28;49970;-69
2023/02/24 18:17:49;;;;;;;;;14.75;14.75;;;;;8.97;88.32;100606.72;4952715;28;49981;-68
2023/02/24 18:20:15;;;;;;;;;19.75;18.50;;;;;9.00;88.86;100612.06;4950549;28;51509;-69
2023/02/24 18:22:40;;;;;;;;;15.25;14.50;;;;;9.32;89.86;100669.59;4952391;28;49663;-69
2023/02/24 18:25:06;;;;;;;;;14.25;14.25;;;;;8.71;90.39;100585.16;4952499;28;49989;-69
2023/02/24 18:27:31;;;;;;;;;18.00;17.25;;;;;9.21;91.93;100677.19;4935041;28;50267;-67
2023/02/24 18:29:57;;;;;;;;;12.75;12.50;;;;;9.23;95.02;100692.94;4952011;28;51131;-68
2023/02/24 18:32:22;;;;;;;;;10.00;9.75;;;;;9.12;96.18;100675.22;4952320;28;49687;-68
2023/02/24 18:34:48;;;;;;;;;13.00;11.25;;;;;8.55;97.07;100583.88;4951802;28;49751;-66
2023/02/24 18:37:13;;;;;;;;;9.00;7.75;;;;;7.35;98.90;100426.34;4952450;28;50108;-68
2023/02/24 18:39:38;;;;;;;;;16.50;11.50;;;;;8.56;100.00;100609.19;4930808;28;52290;-67
2023/02/24 18:42:04;;;;;;;;;12.00;10.75;;;;;8.04;100.00;100537.16;4933517;28;49811;-67
2023/02/24 18:44:29;;;;;;;;;9.75;9.75;;;;;8.76;100.00;100650.69;4933685;28;49771;-67
2023/02/24 18:46:55;;;;;;;;;9.25;9.25;;;;;8.26;100.00;100548.19;4933618;28;49808;-65
2023/02/24 18:49:20;;;;;;;;;16.50;15.25;;;;;8.07;100.00;100517.16;4933234;28;49874;-64
2023/02/24 18:51:47;;;;;;;;;13.00;9.75;;;;;8.25;100.00;100593.50;4932938;28;49982;-65
2023/02/24 18:54:13;;;;;;;;;12.75;10.50;;;;;8.45;100.00;100580.97;4933433;28;49855;-65
2023/02/24 18:56:38;;;;;;;;;10.25;10.25;;;;;9.15;100.00;100700.59;4933054;28;50120;-66